Briefing drone pour Vic-sur-cere

Rechercher une autre localisation

Conditions de vol :


Nous sommes le : Lundi 05 décembre 2022
Il est 07:19 UTC (08:19 LT)

Lever de soleil : 06:45 UTC (07:45 LT)
Coucher de soleil : 16:34 UTC (17:34 LT)

Météo

L'essentiel des conditions de vol

VIGILANCE MÉTÉO FRANCE - Cantal (15)
Vigilance Jaune : Neige-verglas
CARTE TEMSI
CARTES DES FRONTS
METAR de LFLW
LFLW 050700Z AUTO 08006KT CAVOK M02/M03 Q1017 NOSIG

Date d'émission: 05/12/2022
Heure d'émission: 07:00 UTC
Vent: 080° pour 6 KT (11 km/h)
Visibilité horizontale: > 10 km
Plafond : Plafond et visibilité OK (CAVOK)
Température: -2 °C
Point de rosée: -3 °C
Humidité: 93%
Pression (QNH): 1017 hPa
Conditions: Pas de changement dans les 2 heures (NOSIG)
Prévision 24h pour Aurillac (9 km)
Vent : 68° pour 2 KT (6 km/h)
Temperature Maxi: -1 °C
Temperature Min: -1 °C
Humidité : 73%
Condition : Nuageux



Warning: count(): Parameter must be an array or an object that implements Countable in /homepages/6/d509196549/htdocs/droneoxygene/briefing.php on line 743
WEBCAM POUR VIC-SUR-CERE

Réglementation

Voler en sécurité

CARTES AERONAUTIQUE 1/500.000
CARTE AZBA (Reseau basse altitude)
CARTES VAC (LFLW)
SUP AIP




Chargement des AIP...
NOTAM (VIC-SUR-CERE + Terrain à proximité / FIR )




Chargement des NOTAMS...
CONTACT PREFECTURE 15


Avertissement : Les données mises à disposition sont indicatives. Oxygène Drone ne pourra être tenu responsable de dégâts causés aux biens et aux personnes.